Time;durP1;ratioP1;P1;durP2;ratioP2;P2;SDS_P1;SDS_P2;PMS_P1;PMS_P2;Temp;Humidity;BMP_temperature;BMP_pressure;BME280_temperature;BME280_humidity;BME280_pressure;Samples;Min_cycle;Max_cycle;Signal;HPM_P1;HPM_P2
2022/09/17 00:01:31;;;;;;;0.10;0.10;;;;;;;19.42;74.20;99512.41;4915505;29;20060;-79
2022/09/17 00:04:02;;;;;;;0.10;0.10;;;;;;;19.26;74.53;99507.75;4916198;29;20507;-81
2022/09/17 00:06:34;;;;;;;0.80;0.20;;;;;;;19.44;73.93;99519.22;4915899;29;20063;-80
2022/09/17 00:09:04;;;;;;;0.38;0.20;;;;;;;19.64;74.33;99510.84;4916038;29;20052;-80
2022/09/17 00:11:35;;;;;;;0.20;0.20;;;;;;;19.60;73.49;99532.19;4915866;29;20048;-80
2022/09/17 00:14:05;;;;;;;0.20;0.20;;;;;;;19.69;73.33;99518.06;4930511;29;20056;-80
2022/09/17 00:16:39;;;;;;;0.10;0.10;;;;;;;20.01;72.46;99517.88;4915697;29;20052;-80
2022/09/17 00:19:13;;;;;;;0.30;0.30;;;;;;;19.90;72.26;99516.84;4916061;29;20052;-81
2022/09/17 00:21:41;;;;;;;0.17;0.10;;;;;;;19.78;72.47;99518.63;4915788;29;20048;-80
2022/09/17 00:24:11;;;;;;;0.55;0.20;;;;;;;19.71;71.84;99510.19;4914757;29;20044;-79
2022/09/17 00:26:39;;;;;;;0.30;0.30;;;;;;;19.87;71.98;99508.09;4914694;29;20040;-79
2022/09/17 00:29:08;;;;;;;0.32;0.10;;;;;;;19.88;70.77;99503.34;4915780;29;20487;-81
2022/09/17 00:31:36;;;;;;;0.08;0.08;;;;;;;19.71;71.16;99507.41;4915729;29;20049;-80
2022/09/17 00:34:05;;;;;;;1.08;0.25;;;;;;;19.69;71.67;99512.50;4915533;29;20075;-79
2022/09/17 00:36:36;;;;;;;0.10;0.10;;;;;;;19.72;71.21;99511.78;4930364;29;20048;-79
2022/09/17 00:39:06;;;;;;;1.30;0.10;;;;;;;19.77;72.00;99513.44;4915706;29;20059;-76
2022/09/17 00:41:35;;;;;;;0.30;0.30;;;;;;;19.47;71.72;99524.00;4915847;29;20052;-77
2022/09/17 00:44:40;;;;;;;0.17;0.17;;;;;;;19.57;72.73;99522.63;4915608;29;20044;-80
2022/09/17 00:47:19;;;;;;;0.20;0.20;;;;;;;19.27;73.72;99523.25;4912598;29;20526;-80
2022/09/17 00:49:50;;;;;;;0.10;0.10;;;;;;;19.33;73.64;99513.47;4891164;29;20044;-80
2022/09/17 00:52:24;;;;;;;0.00;0.00;;;;;;;19.10;74.52;99504.25;4919435;29;20048;-78
2022/09/17 00:55:01;;;;;;;0.32;0.32;;;;;;;19.37;73.84;99507.16;4908845;29;20058;-82
2022/09/17 00:57:30;;;;;;;0.40;0.40;;;;;;;19.33;73.45;99526.50;4919297;29;20052;-81
2022/09/17 00:59:59;;;;;;;0.10;0.10;;;;;;;19.25;73.82;99522.78;4919300;29;20044;-81
2022/09/17 01:02:27;;;;;;;1.13;0.30;;;;;;;19.19;74.12;99524.25;4919131;29;20051;-81
2022/09/17 01:04:55;;;;;;;0.20;0.20;;;;;;;19.25;73.33;99511.69;4919053;29;20044;-80
2022/09/17 01:07:31;;;;;;;0.10;0.10;;;;;;;19.13;74.89;99503.53;4907927;29;20052;-79
2022/09/17 01:10:20;;;;;;;0.32;0.30;;;;;;;19.02;77.34;99515.16;4905977;29;20047;-80
2022/09/17 01:13:15;;;;;;;0.30;0.30;;;;;;;18.99;76.41;99507.59;4916226;29;20056;-79
2022/09/17 01:16:03;;;;;;;0.20;0.15;;;;;;;18.89;76.12;99510.91;4918840;29;20051;-80
2022/09/17 01:18:38;;;;;;;0.20;0.10;;;;;;;18.97;76.28;99507.13;4918848;29;20056;-81
2022/09/17 01:21:09;;;;;;;0.35;0.17;;;;;;;18.90;76.34;99510.56;4918841;29;20051;-81
2022/09/17 01:23:36;;;;;;;0.00;0.00;;;;;;;18.84;76.30;99505.66;4918693;29;20044;-81
2022/09/17 01:26:19;;;;;;;0.10;0.10;;;;;;;18.98;75.85;99503.22;4918705;29;20044;-80
2022/09/17 01:29:02;;;;;;;0.10;0.10;;;;;;;19.07;74.54;99519.66;4919264;29;20061;-80
2022/09/17 01:31:43;;;;;;;0.43;0.25;;;;;;;19.12;73.57;99515.78;4919688;29;20530;-81
2022/09/17 01:34:25;;;;;;;0.10;0.10;;;;;;;19.22;72.07;99512.44;4918607;29;20052;-80
2022/09/17 01:37:13;;;;;;;0.32;0.10;;;;;;;18.90;72.86;99512.53;4918674;29;20052;-78
2022/09/17 01:39:59;;;;;;;0.10;0.10;;;;;;;19.01;73.09;99510.78;4918637;29;20058;-77
2022/09/17 01:42:42;;;;;;;0.03;0.00;;;;;;;18.89;72.96;99505.38;4918328;29;20040;-81
2022/09/17 01:45:48;;;;;;;0.15;0.15;;;;;;;18.79;73.28;99499.25;4918573;29;20074;-83
2022/09/17 01:48:19;;;;;;;0.22;0.20;;;;;;;18.80;72.67;99517.47;4918381;29;20056;-79
2022/09/17 01:51:09;;;;;;;0.10;0.10;;;;;;;18.74;71.97;99524.47;4918269;29;20059;-81
2022/09/17 01:53:42;;;;;;;0.10;0.10;;;;;;;18.78;71.22;99522.56;4918216;29;20052;-81
2022/09/17 01:56:16;;;;;;;0.10;0.10;;;;;;;18.56;71.48;99510.19;4918231;29;20048;-77
2022/09/17 01:58:52;;;;;;;0.73;0.43;;;;;;;18.57;70.87;99516.56;4916932;29;20052;-79
2022/09/17 02:01:24;;;;;;;2.47;0.80;;;;;;;18.88;70.18;99515.69;4917989;29;20063;-80
2022/09/17 02:04:05;;;;;;;0.57;0.40;;;;;;;19.03;70.07;99516.00;4932277;29;20063;-80
2022/09/17 02:06:42;;;;;;;0.30;0.13;;;;;;;18.80;70.18;99524.97;4917997;29;20059;-81
2022/09/17 02:09:17;;;;;;;2.33;0.90;;;;;;;18.93;70.17;99520.13;4918133;29;20068;-78
2022/09/17 02:11:51;;;;;;;1.45;0.70;;;;;;;19.18;68.68;99506.00;4909539;29;20055;-79
2022/09/17 02:14:29;;;;;;;0.10;0.10;;;;;;;19.17;69.13;99523.81;4907415;29;20055;-79
2022/09/17 02:17:06;;;;;;;0.38;0.20;;;;;;;19.13;68.85;99520.16;4905078;29;20051;-81
2022/09/17 02:19:37;;;;;;;0.30;0.22;;;;;;;19.07;68.86;99516.88;4917904;29;20044;-81
2022/09/17 02:22:18;;;;;;;0.10;0.10;;;;;;;18.78;69.35;99522.56;4917893;29;20047;-79
2022/09/17 02:24:58;;;;;;;0.20;0.20;;;;;;;18.86;69.71;99512.44;4917536;29;20048;-80
2022/09/17 02:27:38;;;;;;;1.58;0.20;;;;;;;18.90;69.19;99499.47;4917821;29;20044;-81
2022/09/17 02:30:06;;;;;;;0.20;0.20;;;;;;;19.10;67.80;99507.03;4917772;29;20051;-81
2022/09/17 02:32:34;;;;;;;2.25;0.70;;;;;;;19.00;68.46;99498.09;4931863;29;20396;-78
2022/09/17 02:35:03;;;;;;;0.50;0.40;;;;;;;19.14;67.98;99505.13;4917352;29;20060;-80
2022/09/17 02:37:31;;;;;;;0.80;0.30;;;;;;;19.00;68.39;99488.97;4931901;29;20047;-82
2022/09/17 02:39:59;;;;;;;0.30;0.10;;;;;;;18.95;68.31;99484.50;4916349;29;20510;-79
2022/09/17 02:42:35;;;;;;;1.67;0.32;;;;;;;18.89;68.43;99477.66;4917321;29;20055;-79
2022/09/17 02:45:14;;;;;;;0.10;0.10;;;;;;;19.02;67.79;99462.47;4916895;29;20060;-79
2022/09/17 02:47:59;;;;;;;0.52;0.30;;;;;;;18.85;68.33;99449.88;4917223;29;20063;-79
2022/09/17 02:50:45;;;;;;;1.63;0.82;;;;;;;18.95;68.02;99470.66;4917345;29;20052;-80
2022/09/17 02:53:51;;;;;;;1.27;0.40;;;;;;;18.92;67.91;99476.94;4917194;29;20055;-77
2022/09/17 02:56:47;;;;;;;0.22;0.22;;;;;;;18.90;67.46;99491.16;4913985;29;20067;-80
2022/09/17 02:59:24;;;;;;;0.68;0.20;;;;;;;18.84;67.95;99486.25;4917080;29;20059;-79
2022/09/17 03:01:58;;;;;;;0.65;0.25;;;;;;;18.91;66.88;99480.84;4917124;29;20051;-78
2022/09/17 03:04:27;;;;;;;;;;;;;;;19.19;65.80;99472.38;4917255;29;20048;-80
2022/09/17 03:06:58;;;;;;;0.20;0.10;;;;;;;19.12;65.42;99469.47;4916929;29;19923;-79
2022/09/17 03:09:26;;;;;;;0.10;0.10;;;;;;;19.13;65.50;99459.97;4916811;29;20399;-79
2022/09/17 03:11:54;;;;;;;1.85;0.10;;;;;;;18.78;64.67;99444.97;4906085;29;20045;-79
2022/09/17 03:14:22;;;;;;;0.10;0.10;;;;;;;18.94;64.12;99460.75;4894836;29;20044;-81
2022/09/17 03:16:50;;;;;;;0.00;0.00;;;;;;;18.98;63.77;99431.13;4930612;29;20044;-79
2022/09/17 03:19:18;;;;;;;0.00;0.00;;;;;;;18.91;62.69;99437.31;4916648;29;20052;-77
2022/09/17 03:21:46;;;;;;;0.08;0.08;;;;;;;19.02;63.01;99423.66;4916603;29;20044;-82
2022/09/17 03:24:14;;;;;;;0.00;0.00;;;;;;;19.04;62.43;99418.59;4916695;29;20048;-79
2022/09/17 03:26:42;;;;;;;0.20;0.20;;;;;;;18.92;63.07;99421.50;4900721;29;20044;-79
2022/09/17 03:29:09;;;;;;;0.25;0.25;;;;;;;18.93;62.92;99440.53;4898894;29;20519;-78
2022/09/17 03:31:38;;;;;;;0.00;0.00;;;;;;;19.11;62.44;99440.09;4899155;29;20044;-80
2022/09/17 03:34:06;;;;;;;0.00;0.00;;;;;;;18.92;63.06;99443.69;4900495;29;20403;-79
2022/09/17 03:36:34;;;;;;;0.10;0.10;;;;;;;19.04;62.19;99462.97;4899092;29;20048;-77
2022/09/17 03:39:02;;;;;;;0.00;0.00;;;;;;;18.95;63.11;99454.03;4900572;29;20056;-81
2022/09/17 03:41:30;;;;;;;0.05;0.00;;;;;;;19.13;62.52;99448.06;4899168;29;20075;-81
2022/09/17 03:43:58;;;;;;;0.00;0.00;;;;;;;18.98;62.64;99466.34;4899980;29;20045;-77
2022/09/17 03:46:26;;;;;;;0.10;0.10;;;;;;;19.01;62.17;99435.94;4899484;29;20059;-81
2022/09/17 03:48:54;;;;;;;1.98;0.08;;;;;;;18.78;62.56;99466.34;4899130;29;20708;-77
2022/09/17 03:51:22;;;;;;;0.00;0.00;;;;;;;19.08;61.52;99471.34;4900182;29;20053;-77
2022/09/17 03:53:50;;;;;;;0.00;0.00;;;;;;;19.36;60.90;99478.63;4898929;29;20112;-79
2022/09/17 03:56:18;;;;;;;0.20;0.20;;;;;;;19.33;61.41;99480.16;4900125;29;20052;-80
2022/09/17 03:58:46;;;;;;;0.20;0.20;;;;;;;19.20;63.71;99482.28;4898843;29;20400;-81
2022/09/17 04:01:14;;;;;;;1.45;0.15;;;;;;;18.81;65.62;99493.31;4899883;29;20487;-81
2022/09/17 04:03:43;;;;;;;0.08;0.08;;;;;;;18.64;69.08;99483.47;4898581;29;20048;-81
2022/09/17 04:06:10;;;;;;;0.10;0.10;;;;;;;18.59;68.76;99469.88;4894986;29;20052;-84
2022/09/17 04:08:38;;;;;;;0.20;0.10;;;;;;;18.38;69.74;99473.78;4910914;29;20063;-81
2022/09/17 04:11:06;;;;;;;0.00;0.00;;;;;;;18.16;71.54;99444.78;4905586;29;20422;-82
2022/09/17 04:13:35;;;;;;;0.45;0.30;;;;;;;18.34;71.34;99457.06;4910936;29;20048;-81
2022/09/17 04:16:04;;;;;;;0.55;0.13;;;;;;;18.35;70.34;99471.72;4909875;29;20051;-83
2022/09/17 04:18:33;;;;;;;0.17;0.15;;;;;;;18.34;71.46;99476.44;4907314;29;20048;-82
2022/09/17 04:21:01;;;;;;;0.10;0.10;;;;;;;18.31;71.35;99484.69;4916795;29;20395;-83
2022/09/17 04:23:30;;;;;;;0.00;0.00;;;;;;;18.23;71.90;99498.38;4930064;29;20039;-85
2022/09/17 04:25:58;;;;;;;0.32;0.10;;;;;;;18.30;73.57;99513.53;4928624;29;20057;-83
2022/09/17 04:28:26;;;;;;;0.00;0.00;;;;;;;18.53;72.02;99533.09;4922435;29;20052;-83
2022/09/17 04:30:54;;;;;;;0.00;0.00;;;;;;;18.60;73.26;99527.72;4935543;29;20048;-83
2022/09/17 04:33:22;;;;;;;0.30;0.20;;;;;;;18.69;71.52;99548.88;4922313;29;20804;-84
2022/09/17 04:35:50;;;;;;;0.00;0.00;;;;;;;18.73;73.39;99564.41;4939212;29;20070;-84
2022/09/17 04:38:19;;;;;;;0.30;0.20;;;;;;;18.89;73.16;99572.72;4931499;29;20059;-84
2022/09/17 04:40:47;;;;;;;2.00;0.15;;;;;;;18.69;71.05;99585.72;4920249;29;20391;-83
2022/09/17 04:43:15;;;;;;;0.00;0.00;;;;;;;18.62;70.27;99586.34;4926461;29;20059;-84
2022/09/17 04:45:48;;;;;;;0.00;0.00;;;;;;;18.84;68.86;99591.56;4924779;29;20040;-83
2022/09/17 04:48:16;;;;;;;0.15;0.15;;;;;;;18.84;71.17;99597.13;4916067;29;20079;-82
2022/09/17 04:50:50;;;;;;;1.42;0.45;;;;;;;18.75;73.75;99617.53;4919633;29;20055;-84
2022/09/17 04:53:18;;;;;;;0.30;0.30;;;;;;;18.69;76.82;99624.50;4913607;29;20048;-84
2022/09/17 04:55:47;;;;;;;11.98;1.13;;;;;;;18.75;75.61;99634.16;4928445;29;20044;-81
2022/09/17 04:58:15;;;;;;;1.75;0.57;;;;;;;19.49;73.51;99642.94;4935367;29;20526;-80
2022/09/17 05:00:43;;;;;;;2.42;0.70;;;;;;;19.93;71.67;99652.13;4930735;29;20051;-79
2022/09/17 05:03:11;;;;;;;1.85;0.52;;;;;;;20.10;67.73;99632.28;4923310;29;20052;-79
2022/09/17 05:05:39;;;;;;;1.35;0.00;;;;;;;19.76;67.24;99631.19;4925705;29;20055;-80
2022/09/17 05:08:07;;;;;;;0.10;0.10;;;;;;;19.73;67.50;99599.41;4929212;29;20035;-80
2022/09/17 05:10:35;;;;;;;0.88;0.10;;;;;;;19.92;69.05;99586.69;4925665;29;20055;-80
2022/09/17 05:13:03;;;;;;;0.20;0.20;;;;;;;19.48;69.18;99585.84;4927730;29;20063;-79
2022/09/17 05:15:31;;;;;;;1.75;0.13;;;;;;;19.73;69.65;99594.69;4925106;29;20036;-79
2022/09/17 05:17:59;;;;;;;4.03;0.40;;;;;;;19.43;69.33;99583.38;4914650;29;20064;-79
2022/09/17 05:20:27;;;;;;;0.03;0.03;;;;;;;19.84;68.83;99597.66;4923071;29;20044;-80
2022/09/17 05:22:55;;;;;;;0.75;0.20;;;;;;;19.58;69.57;99587.25;4917738;29;20248;-80
2022/09/17 05:25:23;;;;;;;1.08;0.13;;;;;;;19.51;68.88;99574.03;4925223;29;20073;-81
2022/09/17 05:27:52;;;;;;;1.35;0.20;;;;;;;19.84;69.21;99585.78;4915239;29;20039;-81
2022/09/17 05:30:41;;;;;;;0.22;0.20;;;;;;;20.07;68.49;99599.69;4920228;29;20063;-81
2022/09/17 05:33:11;;;;;;;0.43;0.10;;;;;;;19.67;68.58;99592.56;4918476;29;20040;-81
2022/09/17 05:35:39;;;;;;;0.25;0.10;;;;;;;19.99;68.26;99595.19;4921669;29;20055;-81
2022/09/17 05:38:07;;;;;;;0.73;0.17;;;;;;;20.14;68.14;99587.94;4918615;29;20051;-81
2022/09/17 05:40:37;;;;;;;0.10;0.10;;;;;;;20.32;67.04;99591.00;4903752;29;20048;-81
2022/09/17 05:43:06;;;;;;;0.10;0.10;;;;;;;20.08;67.22;99598.53;4918380;29;20532;-80
2022/09/17 05:45:36;;;;;;;0.75;0.22;;;;;;;20.38;67.17;99606.19;4917969;29;20377;-79
2022/09/17 05:48:06;;;;;;;0.75;0.40;;;;;;;20.48;66.90;99612.31;4914805;29;20506;-79
2022/09/17 05:50:34;;;;;;;0.35;0.20;;;;;;;20.31;67.29;99608.84;4915262;29;20050;-80
2022/09/17 05:53:04;;;;;;;0.50;0.43;;;;;;;19.88;67.31;99608.81;4921520;29;20040;-81
2022/09/17 05:55:34;;;;;;;2.35;0.50;;;;;;;19.47;69.60;99600.91;4918654;29;20064;-79
2022/09/17 05:58:10;;;;;;;0.30;0.20;;;;;;;19.79;69.12;99622.94;4922278;29;20067;-79
2022/09/17 06:00:41;;;;;;;0.88;0.73;;;;;;;19.80;68.08;99623.75;4915424;29;20060;-79
2022/09/17 06:03:13;;;;;;;0.65;0.40;;;;;;;19.49;69.89;99640.19;4917778;29;20041;-80
2022/09/17 06:05:42;;;;;;;2.05;0.30;;;;;;;19.63;69.29;99634.13;4917003;29;20060;-80
2022/09/17 06:08:10;;;;;;;0.52;0.40;;;;;;;19.52;70.02;99633.91;4928629;29;20043;-80
2022/09/17 06:10:38;;;;;;;0.43;0.22;;;;;;;19.83;69.48;99650.75;4932422;29;20052;-80
2022/09/17 06:13:06;;;;;;;0.80;0.50;;;;;;;19.52;68.95;99647.78;4920775;29;20051;-80
2022/09/17 06:15:34;;;;;;;0.85;0.22;;;;;;;19.38;68.23;99655.78;4928725;29;20044;-80
2022/09/17 06:18:02;;;;;;;0.13;0.10;;;;;;;19.45;68.87;99667.03;4915272;29;20048;-79
2022/09/17 06:20:30;;;;;;;0.10;0.10;;;;;;;19.32;68.91;99689.34;4917324;29;20056;-77
2022/09/17 06:22:58;;;;;;;0.22;0.20;;;;;;;19.41;69.58;99705.00;4917390;29;20407;-79
2022/09/17 06:25:28;;;;;;;0.38;0.38;;;;;;;19.59;68.66;99720.06;4918450;29;20055;-79
2022/09/17 06:27:56;;;;;;;1.08;0.20;;;;;;;19.76;69.18;99737.50;4923040;29;20057;-79
2022/09/17 06:30:24;;;;;;;0.10;0.10;;;;;;;19.60;68.45;99743.88;4926087;29;20044;-80
2022/09/17 06:32:52;;;;;;;0.40;0.20;;;;;;;19.94;68.27;99773.16;4899963;29;20492;-78
2022/09/17 06:35:20;;;;;;;0.68;0.10;;;;;;;19.83;69.11;99773.72;4918471;29;20051;-79
2022/09/17 06:37:48;;;;;;;0.13;0.13;;;;;;;19.78;69.88;99787.06;4919835;29;20055;-81
2022/09/17 06:40:16;;;;;;;0.17;0.17;;;;;;;19.73;69.54;99786.22;4917481;29;20052;-81
2022/09/17 06:42:44;;;;;;;0.38;0.20;;;;;;;19.80;70.53;99804.19;4916364;29;20543;-80
2022/09/17 06:45:12;;;;;;;0.20;0.20;;;;;;;20.07;70.88;99812.72;4920078;29;20051;-80
2022/09/17 06:47:43;;;;;;;0.75;0.20;;;;;;;20.14;68.33;99826.78;4917169;29;20396;-82
2022/09/17 06:50:11;;;;;;;2.17;0.43;;;;;;;19.90;67.07;99816.69;4922504;29;20037;-82
2022/09/17 06:52:46;;;;;;;0.22;0.17;;;;;;;19.39;68.35;99838.53;4916903;29;20047;-78
2022/09/17 06:55:15;;;;;;;2.03;0.45;;;;;;;18.75;71.36;99830.91;4914904;29;20056;-79
2022/09/17 06:57:43;;;;;;;0.17;0.17;;;;;;;18.59;71.56;99852.22;4915410;29;20055;-82
2022/09/17 07:00:13;;;;;;;0.10;0.10;;;;;;;18.06;70.45;99850.31;4929609;29;20471;-82
2022/09/17 07:02:42;;;;;;;0.20;0.17;;;;;;;17.62;72.05;99860.00;4918614;29;20052;-82
2022/09/17 07:05:10;;;;;;;0.45;0.22;;;;;;;17.27;73.56;99857.66;4919789;29;20043;-81
2022/09/17 07:07:40;;;;;;;0.17;0.13;;;;;;;16.84;72.44;99874.34;4916503;29;20047;-72
2022/09/17 07:10:08;;;;;;;2.65;0.13;;;;;;;16.78;74.35;99882.03;4915572;29;20051;-72
2022/09/17 07:12:39;;;;;;;1.52;0.30;;;;;;;16.41;77.08;99881.84;4914311;29;20048;-73
2022/09/17 07:15:10;;;;;;;0.17;0.17;;;;;;;15.92;78.97;99908.00;4915214;29;20055;-71
2022/09/17 07:17:39;;;;;;;0.22;0.20;;;;;;;16.32;79.28;99928.88;4915918;29;20048;-71
2022/09/17 07:20:07;;;;;;;1.65;0.52;;;;;;;16.69;79.36;99949.56;4917760;29;20052;-71
2022/09/17 07:22:35;;;;;;;1.30;0.75;;;;;;;16.90;77.91;99942.06;4916253;29;20055;-72
2022/09/17 07:25:14;;;;;;;0.85;0.20;;;;;;;16.90;77.77;99950.38;4913602;29;20526;-72
2022/09/17 07:27:44;;;;;;;0.20;0.20;;;;;;;16.81;80.39;99960.66;4916220;29;20047;-72
2022/09/17 07:30:14;;;;;;;0.32;0.20;;;;;;;16.29;79.50;99953.56;4915840;29;20048;-72
2022/09/17 07:32:42;;;;;;;0.32;0.32;;;;;;;16.35;80.44;99947.53;4914346;29;20051;-73
2022/09/17 07:35:12;;;;;;;0.88;0.40;;;;;;;15.97;81.40;99965.75;4915727;29;20059;-72
2022/09/17 07:37:40;;;;;;;0.30;0.28;;;;;;;15.79;80.26;99970.50;4898564;29;20060;-71
2022/09/17 07:40:09;;;;;;;0.35;0.25;;;;;;;15.78;80.48;99965.34;4915119;29;20048;-87
2022/09/17 07:42:37;;;;;;;0.20;0.10;;;;;;;15.67;79.52;99953.84;4913968;29;20044;-89
2022/09/17 07:45:06;;;;;;;1.08;0.10;;;;;;;15.50;81.08;99951.94;4919031;29;20514;-84
2022/09/17 07:47:39;;;;;;;1.25;0.55;;;;;;;15.30;82.39;99946.81;4915692;29;20047;-82
2022/09/17 07:50:08;;;;;;;0.52;0.25;;;;;;;15.19;83.01;99937.25;4917895;29;20060;-81
2022/09/17 07:52:36;;;;;;;0.43;0.30;;;;;;;14.98;82.88;99918.66;4916245;29;20484;-82
2022/09/17 07:55:04;;;;;;;0.77;0.35;;;;;;;14.83;83.91;99889.66;4914952;29;20043;-82
2022/09/17 07:57:32;;;;;;;0.30;0.28;;;;;;;14.77;82.55;99872.47;4915685;29;20371;-81
2022/09/17 08:00:00;;;;;;;0.30;0.30;;;;;;;14.71;82.89;99865.50;4898507;29;20048;-79
2022/09/17 08:02:38;;;;;;;0.88;0.22;;;;;;;14.73;83.62;99884.47;4913161;29;20361;-82
2022/09/17 08:05:06;;;;;;;0.38;0.25;;;;;;;14.50;83.24;99849.66;4904722;29;20066;-82
2022/09/17 08:07:34;;;;;;;2.28;0.60;;;;;;;14.64;84.47;99851.41;4924471;29;20051;-81
2022/09/17 08:10:02;;;;;;;0.30;0.30;;;;;;;14.83;82.51;99831.00;4919056;29;20040;-81
2022/09/17 08:12:30;;;;;;;1.35;0.30;;;;;;;15.30;83.73;99833.00;4926781;29;20047;-81
2022/09/17 08:14:58;;;;;;;0.10;0.10;;;;;;;16.27;77.85;99815.88;4932343;29;20050;-82
2022/09/17 08:17:26;;;;;;;0.68;0.25;;;;;;;16.48;73.34;99804.00;4933755;29;20738;-81
2022/09/17 08:19:54;;;;;;;1.02;0.10;;;;;;;16.99;73.83;99797.47;4932206;29;20052;-80
2022/09/17 08:22:22;;;;;;;0.90;0.22;;;;;;;17.36;71.81;99780.97;4933595;29;20051;-82
2022/09/17 08:24:50;;;;;;;0.20;0.20;;;;;;;17.53;68.99;99803.97;4932408;29;20047;-82
2022/09/17 08:27:18;;;;;;;0.00;0.00;;;;;;;17.79;68.01;99800.06;4917662;29;20040;-81
2022/09/17 08:29:46;;;;;;;0.10;0.10;;;;;;;17.76;64.04;99818.16;4898631;29;20052;-82
2022/09/17 08:32:14;;;;;;;0.70;0.13;;;;;;;18.15;61.11;99844.63;4915335;29;20048;-83
2022/09/17 08:34:42;;;;;;;0.20;0.20;;;;;;;18.12;60.42;99849.72;4898285;29;20052;-83
2022/09/17 08:37:10;;;;;;;0.20;0.10;;;;;;;18.59;61.51;99880.75;4915269;29;20056;-83
2022/09/17 08:39:38;;;;;;;0.13;0.13;;;;;;;18.80;60.53;99891.66;4898022;29;20056;-83
2022/09/17 08:42:16;;;;;;;0.28;0.10;;;;;;;18.78;60.12;99927.19;4915419;29;20060;-83
2022/09/17 08:44:46;;;;;;;0.10;0.10;;;;;;;18.87;60.58;99940.13;4898123;29;20092;-84
2022/09/17 08:47:27;;;;;;;;;;;;;;;18.71;61.58;99953.94;4898794;29;20064;-83
2022/09/17 08:49:58;;;;;;;0.47;0.35;;;;;;;18.74;63.22;99942.94;4915445;29;20367;-82
2022/09/17 08:52:29;;;;;;;0.10;0.10;;;;;;;18.89;61.15;99971.06;4915284;29;20063;-82
2022/09/17 08:55:17;;;;;;;0.17;0.10;;;;;;;19.29;57.12;99977.75;4915324;29;20526;-83
2022/09/17 08:57:54;;;;;;;0.73;0.20;;;;;;;19.02;51.92;99975.41;4915161;29;20048;-83
2022/09/17 09:00:23;;;;;;;0.08;0.08;;;;;;;19.25;53.15;99972.09;4915245;29;20048;-82
2022/09/17 09:03:13;;;;;;;0.00;0.00;;;;;;;19.02;52.13;99974.59;4897440;29;20052;-84
2022/09/17 09:05:41;;;;;;;0.10;0.10;;;;;;;18.86;51.34;99971.78;4914716;29;20040;-80
2022/09/17 09:08:30;;;;;;;3.50;0.20;;;;;;;19.10;52.47;99976.44;4914963;29;20056;-82
2022/09/17 09:11:01;;;;;;;0.32;0.20;;;;;;;19.16;53.04;99986.13;4925313;29;20051;-83
2022/09/17 09:13:39;;;;;;;0.20;0.17;;;;;;;18.89;52.59;99979.38;4916581;29;20051;-83
2022/09/17 09:16:20;;;;;;;0.20;0.20;;;;;;;18.76;52.36;100001.59;4918647;29;20048;-84
2022/09/17 09:18:53;;;;;;;0.13;0.13;;;;;;;18.57;52.82;100018.03;4906847;29;20784;-85
2022/09/17 09:21:26;;;;;;;0.00;0.00;;;;;;;18.67;54.60;100028.63;4913647;29;20044;-83
2022/09/17 09:24:04;;;;;;;0.22;0.22;;;;;;;18.56;56.06;100039.38;4908766;29;20044;-84
2022/09/17 09:26:35;;;;;;;2.85;0.30;;;;;;;18.07;58.98;100035.47;4902202;29;20044;-84
2022/09/17 09:29:27;;;;;;;0.50;0.20;;;;;;;18.11;60.67;100017.00;4915602;29;20044;-83
2022/09/17 09:32:07;;;;;;;3.05;0.20;;;;;;;18.46;61.31;100037.06;4918475;29;20821;-82
2022/09/17 11:47:49;;;;;;;0.40;0.40;;;;;;;18.91;60.65;100155.31;5109377;27;20404;-80
2022/09/17 11:50:31;;;;;;;0.40;0.40;;;;;;;19.16;59.34;100146.97;5088377;28;20048;-80
2022/09/17 11:53:19;;;;;;;0.63;0.63;;;;;;;19.33;60.92;100161.75;5077812;28;20052;-79
2022/09/17 11:55:58;;;;;;;1.08;0.40;;;;;;;19.47;58.41;100150.28;5067580;28;20055;-80
2022/09/17 11:58:38;;;;;;;0.30;0.30;;;;;;;19.67;59.05;100158.75;5096838;28;20051;-80
2022/09/17 12:01:20;;;;;;;0.90;0.90;;;;;;;19.65;60.04;100155.53;5095775;28;21110;-80
2022/09/17 12:03:58;;;;;;;0.60;0.60;;;;;;;19.99;58.57;100162.47;5093635;28;20039;-79
2022/09/17 12:06:51;;;;;;;0.93;0.60;;;;;;;20.01;59.47;100165.69;5098998;28;20422;-80
2022/09/17 12:09:27;;;;;;;0.47;0.47;;;;;;;20.20;58.73;100157.84;5103288;28;20375;-80
2022/09/17 12:12:29;;;;;;;0.47;0.47;;;;;;;20.23;56.84;100166.28;5099047;28;20044;-78
2022/09/17 12:15:23;;;;;;;1.08;0.40;;;;;;;20.28;54.29;100160.47;5070396;28;20048;-79
2022/09/17 12:18:03;;;;;;;0.50;0.50;;;;;;;20.46;56.54;100170.41;5093709;28;20047;-80
2022/09/17 12:20:56;;;;;;;1.02;0.68;;;;;;;20.36;55.95;100161.47;5093009;28;20046;-80
2022/09/17 12:23:58;;;;;;;0.60;0.60;;;;;;;20.85;54.01;100164.25;5103534;28;20055;-81
2022/09/17 12:26:48;;;;;;;0.40;0.40;;;;;;;21.04;54.13;100171.84;5095526;28;20058;-80
2022/09/17 12:29:34;;;;;;;0.47;0.47;;;;;;;20.97;53.79;100172.47;5102436;28;20043;-81
2022/09/17 12:32:20;;;;;;;0.57;0.57;;;;;;;21.18;53.10;100174.97;5102190;28;20036;-80
2022/09/17 12:35:16;;;;;;;0.45;0.45;;;;;;;21.72;52.34;100180.94;5104357;28;20054;-80
2022/09/17 12:38:42;;;;;;;0.80;0.80;;;;;;;21.43;52.22;100174.72;5106425;28;20043;-81
2022/09/17 12:41:35;;;;;;;0.52;0.52;;;;;;;21.83;51.29;100185.88;5041607;28;20058;-79
2022/09/17 12:44:42;;;;;;;0.40;0.40;;;;;;;21.75;50.05;100176.56;5098821;28;20036;-81
2022/09/17 12:47:54;;;;;;;0.50;0.50;;;;;;;21.68;50.03;100182.78;5093269;28;20067;-80
2022/09/17 12:50:35;;;;;;;0.47;0.47;;;;;;;22.10;49.24;100175.66;5101249;28;20063;-80
2022/09/17 12:53:03;;;;;;;0.70;0.50;;;;;;;22.35;49.38;100183.72;5087745;28;20239;-79
2022/09/17 12:55:49;;;;;;;0.40;0.40;;;;;;;22.74;48.63;100182.81;5094976;28;20558;-81
2022/09/17 12:58:33;;;;;;;1.67;0.45;;;;;;;22.38;47.61;100173.81;5091592;28;20056;-80
2022/09/17 13:01:20;;;;;;;0.65;0.43;;;;;;;22.05;49.96;100173.22;5083792;28;20047;-81
2022/09/17 13:03:57;;;;;;;2.08;0.70;;;;;;;21.79;48.67;100169.09;5082511;28;20114;-80
2022/09/17 13:06:44;;;;;;;0.70;0.30;;;;;;;21.68;50.53;100168.06;5081254;28;20716;-80
2022/09/17 13:09:18;;;;;;;0.43;0.40;;;;;;;22.02;49.77;100174.75;5089493;28;20036;-81
2022/09/17 13:12:13;;;;;;;0.35;0.35;;;;;;;21.58;50.06;100189.75;5081808;28;20410;-81
2022/09/17 13:14:53;;;;;;;0.50;0.50;;;;;;;21.81;50.75;100188.25;5082556;28;20051;-79
2022/09/17 13:17:31;;;;;;;1.00;0.60;;;;;;;22.20;47.83;100179.03;5063027;28;20429;-79
2022/09/17 13:20:13;;;;;;;3.25;0.52;;;;;;;22.13;48.86;100188.06;5087408;28;20051;-80
2022/09/17 13:22:50;;;;;;;0.30;0.30;;;;;;;22.40;51.30;100177.81;5078343;28;20041;-81
2022/09/17 13:25:21;;;;;;;0.43;0.43;;;;;;;22.74;48.36;100191.16;5077725;28;20036;-78
2022/09/17 13:28:10;;;;;;;0.40;0.38;;;;;;;22.47;49.63;100176.31;5062616;28;20399;-81
2022/09/17 13:31:03;;;;;;;0.43;0.40;;;;;;;22.82;47.90;100187.31;5076428;28;20047;-80
2022/09/17 13:33:51;;;;;;;0.38;0.38;;;;;;;22.33;47.19;100188.03;5074534;28;20045;-79
2022/09/17 13:36:33;;;;;;;0.30;0.30;;;;;;;21.92;48.26;100185.66;5073996;28;20063;-80
2022/09/17 13:39:06;;;;;;;0.45;0.45;;;;;;;21.81;50.52;100171.53;5072503;28;20048;-81
2022/09/17 13:41:39;;;;;;;0.30;0.30;;;;;;;21.85;48.86;100181.56;5073585;28;20044;-81
2022/09/17 13:44:11;;;;;;;0.43;0.40;;;;;;;21.99;49.15;100189.41;5079208;28;20049;-81
2022/09/17 13:46:39;;;;;;;0.40;0.40;;;;;;;22.39;48.00;100183.78;5088162;28;20075;-80
2022/09/17 13:49:16;;;;;;;0.50;0.50;;;;;;;22.37;49.01;100183.31;5062983;28;20048;-79
2022/09/17 13:51:48;;;;;;;0.50;0.50;;;;;;;22.47;47.91;100176.31;5085304;28;20513;-79
2022/09/17 13:54:19;;;;;;;0.28;0.28;;;;;;;22.82;47.79;100187.31;5086202;28;20044;-80
2022/09/17 13:57:08;;;;;;;0.32;0.20;;;;;;;22.99;46.09;100189.94;5087598;28;20067;-81
2022/09/17 13:59:52;;;;;;;0.20;0.20;;;;;;;23.15;46.10;100187.81;5072563;28;20052;-80
2022/09/17 14:02:23;;;;;;;0.60;0.60;;;;;;;23.03;45.82;100182.44;5064148;28;20044;-79
2022/09/17 14:05:28;;;;;;;0.63;0.38;;;;;;;23.15;47.19;100187.81;5056439;28;20044;-79
2022/09/17 14:08:27;;;;;;;0.30;0.30;;;;;;;22.53;46.95;100186.81;5053502;28;20051;-78
2022/09/17 14:10:58;;;;;;;0.20;0.20;;;;;;;22.56;47.20;100188.06;5053940;28;20040;-80
2022/09/17 14:13:37;;;;;;;0.57;0.30;;;;;;;22.83;47.55;100190.91;5062570;28;20486;-78
2022/09/17 14:16:41;;;;;;;0.30;0.30;;;;;;;22.95;46.87;100178.72;5053812;28;20048;-79
2022/09/17 14:19:45;;;;;;;0.30;0.30;;;;;;;22.82;46.43;100173.38;5053954;28;20060;-79